sensor_id;sensor_type;location;lat;lon;timestamp;temperature;humidity
20700;DHT22;10511;51.232;9.420;2024-02-23T00:02:13;8.30;99.90
20700;DHT22;10511;51.232;9.420;2024-02-23T00:04:39;8.30;99.90
20700;DHT22;10511;51.232;9.420;2024-02-23T00:07:08;8.20;99.90
20700;DHT22;10511;51.232;9.420;2024-02-23T00:09:35;8.30;99.90
20700;DHT22;10511;51.232;9.420;2024-02-23T00:12:02;8.20;99.90
20700;DHT22;10511;51.232;9.420;2024-02-23T00:14:30;8.20;99.90
20700;DHT22;10511;51.232;9.420;2024-02-23T00:16:58;8.20;99.90
20700;DHT22;10511;51.232;9.420;2024-02-23T00:19:27;8.10;99.90
20700;DHT22;10511;51.232;9.420;2024-02-23T00:21:53;8.10;99.90
20700;DHT22;10511;51.232;9.420;2024-02-23T00:24:21;8.00;99.90
20700;DHT22;10511;51.232;9.420;2024-02-23T00:26:49;8.20;99.90
20700;DHT22;10511;51.232;9.420;2024-02-23T00:29:16;8.20;99.90
20700;DHT22;10511;51.232;9.420;2024-02-23T00:31:43;8.20;99.90
20700;DHT22;10511;51.232;9.420;2024-02-23T00:34:11;8.10;99.90
20700;DHT22;10511;51.232;9.420;2024-02-23T00:36:39;8.00;99.90
20700;DHT22;10511;51.232;9.420;2024-02-23T00:39:06;7.80;99.90
20700;DHT22;10511;51.232;9.420;2024-02-23T00:41:35;7.80;99.90
20700;DHT22;10511;51.232;9.420;2024-02-23T00:44:02;7.80;99.90
20700;DHT22;10511;51.232;9.420;2024-02-23T00:46:29;7.60;99.90
20700;DHT22;10511;51.232;9.420;2024-02-23T00:48:55;7.40;99.90
20700;DHT22;10511;51.232;9.420;2024-02-23T00:51:22;7.30;99.90
20700;DHT22;10511;51.232;9.420;2024-02-23T00:53:49;7.30;99.90
20700;DHT22;10511;51.232;9.420;2024-02-23T00:56:16;7.30;99.90
20700;DHT22;10511;51.232;9.420;2024-02-23T00:58:44;7.30;99.90
20700;DHT22;10511;51.232;9.420;2024-02-23T01:01:11;7.40;99.90
20700;DHT22;10511;51.232;9.420;2024-02-23T01:03:38;7.30;99.90
20700;DHT22;10511;51.232;9.420;2024-02-23T01:06:05;7.30;99.90
20700;DHT22;10511;51.232;9.420;2024-02-23T01:08:32;7.30;99.90
20700;DHT22;10511;51.232;9.420;2024-02-23T01:10:58;7.30;99.90
20700;DHT22;10511;51.232;9.420;2024-02-23T01:13:25;7.30;99.90
20700;DHT22;10511;51.232;9.420;2024-02-23T01:15:53;7.30;99.90
20700;DHT22;10511;51.232;9.420;2024-02-23T01:18:20;7.30;99.90
20700;DHT22;10511;51.232;9.420;2024-02-23T01:20:47;7.10;99.90
20700;DHT22;10511;51.232;9.420;2024-02-23T01:23:14;7.00;99.90
20700;DHT22;10511;51.232;9.420;2024-02-23T01:25:41;6.90;99.90
20700;DHT22;10511;51.232;9.420;2024-02-23T01:28:08;6.70;99.90
20700;DHT22;10511;51.232;9.420;2024-02-23T01:30:34;6.70;99.90
20700;DHT22;10511;51.232;9.420;2024-02-23T01:33:03;6.70;99.90
20700;DHT22;10511;51.232;9.420;2024-02-23T01:35:30;6.70;99.90
20700;DHT22;10511;51.232;9.420;2024-02-23T01:37:57;6.70;99.90
20700;DHT22;10511;51.232;9.420;2024-02-23T01:40:24;6.60;99.90
20700;DHT22;10511;51.232;9.420;2024-02-23T01:43:00;6.60;99.90
20700;DHT22;10511;51.232;9.420;2024-02-23T01:45:27;6.50;99.90
20700;DHT22;10511;51.232;9.420;2024-02-23T01:47:54;6.50;99.90
20700;DHT22;10511;51.232;9.420;2024-02-23T01:50:23;6.50;99.90
20700;DHT22;10511;51.232;9.420;2024-02-23T01:52:50;6.50;99.90
20700;DHT22;10511;51.232;9.420;2024-02-23T01:55:18;6.50;99.90
20700;DHT22;10511;51.232;9.420;2024-02-23T01:57:45;6.50;99.90
20700;DHT22;10511;51.232;9.420;2024-02-23T02:00:16;6.40;99.90
20700;DHT22;10511;51.232;9.420;2024-02-23T02:02:43;6.40;99.90
20700;DHT22;10511;51.232;9.420;2024-02-23T02:05:10;6.40;99.90
20700;DHT22;10511;51.232;9.420;2024-02-23T02:07:40;6.40;99.90
20700;DHT22;10511;51.232;9.420;2024-02-23T02:10:09;6.40;99.90
20700;DHT22;10511;51.232;9.420;2024-02-23T02:12:36;6.40;99.90
20700;DHT22;10511;51.232;9.420;2024-02-23T02:15:04;6.40;99.90
20700;DHT22;10511;51.232;9.420;2024-02-23T02:17:31;6.40;99.90
20700;DHT22;10511;51.232;9.420;2024-02-23T02:19:59;6.30;99.90
20700;DHT22;10511;51.232;9.420;2024-02-23T02:22:31;6.20;99.90
20700;DHT22;10511;51.232;9.420;2024-02-23T02:24:59;6.10;99.90
20700;DHT22;10511;51.232;9.420;2024-02-23T02:27:26;6.00;99.90
20700;DHT22;10511;51.232;9.420;2024-02-23T02:29:53;5.90;99.90
20700;DHT22;10511;51.232;9.420;2024-02-23T02:32:20;5.90;99.90
20700;DHT22;10511;51.232;9.420;2024-02-23T02:34:47;5.80;99.90
20700;DHT22;10511;51.232;9.420;2024-02-23T02:37:13;5.70;99.90
20700;DHT22;10511;51.232;9.420;2024-02-23T02:39:40;5.70;99.90
20700;DHT22;10511;51.232;9.420;2024-02-23T02:42:09;5.70;99.90
20700;DHT22;10511;51.232;9.420;2024-02-23T02:44:36;5.70;99.90
20700;DHT22;10511;51.232;9.420;2024-02-23T02:47:02;5.70;99.90
20700;DHT22;10511;51.232;9.420;2024-02-23T02:49:29;5.60;99.90
20700;DHT22;10511;51.232;9.420;2024-02-23T02:51:56;5.60;99.90
20700;DHT22;10511;51.232;9.420;2024-02-23T02:54:23;5.60;99.90
20700;DHT22;10511;51.232;9.420;2024-02-23T02:56:50;5.60;99.90
20700;DHT22;10511;51.232;9.420;2024-02-23T02:59:21;5.50;99.90
20700;DHT22;10511;51.232;9.420;2024-02-23T03:01:47;5.40;99.90
20700;DHT22;10511;51.232;9.420;2024-02-23T03:04:14;5.50;99.90
20700;DHT22;10511;51.232;9.420;2024-02-23T03:06:41;5.40;99.90
20700;DHT22;10511;51.232;9.420;2024-02-23T03:09:08;5.40;99.90
20700;DHT22;10511;51.232;9.420;2024-02-23T03:11:36;5.40;99.90
20700;DHT22;10511;51.232;9.420;2024-02-23T03:14:03;5.40;99.90
20700;DHT22;10511;51.232;9.420;2024-02-23T03:16:31;5.40;99.90
20700;DHT22;10511;51.232;9.420;2024-02-23T03:18:59;5.40;99.90
20700;DHT22;10511;51.232;9.420;2024-02-23T03:21:26;5.40;99.90
20700;DHT22;10511;51.232;9.420;2024-02-23T03:23:53;5.30;99.90
20700;DHT22;10511;51.232;9.420;2024-02-23T03:26:20;5.30;99.90
20700;DHT22;10511;51.232;9.420;2024-02-23T03:28:47;5.40;99.90
20700;DHT22;10511;51.232;9.420;2024-02-23T03:31:14;5.30;99.90
20700;DHT22;10511;51.232;9.420;2024-02-23T03:33:43;5.30;99.90
20700;DHT22;10511;51.232;9.420;2024-02-23T03:36:09;5.40;99.90
20700;DHT22;10511;51.232;9.420;2024-02-23T03:38:36;5.30;99.90
20700;DHT22;10511;51.232;9.420;2024-02-23T03:41:03;5.30;99.90
20700;DHT22;10511;51.232;9.420;2024-02-23T03:43:32;5.30;99.90
20700;DHT22;10511;51.232;9.420;2024-02-23T03:45:59;5.30;99.90
20700;DHT22;10511;51.232;9.420;2024-02-23T03:48:26;5.30;99.90
20700;DHT22;10511;51.232;9.420;2024-02-23T03:50:54;5.30;99.90
20700;DHT22;10511;51.232;9.420;2024-02-23T03:53:21;5.30;99.90
20700;DHT22;10511;51.232;9.420;2024-02-23T03:55:48;5.30;99.90
20700;DHT22;10511;51.232;9.420;2024-02-23T03:58:15;5.30;99.90
20700;DHT22;10511;51.232;9.420;2024-02-23T04:00:42;5.30;99.90
20700;DHT22;10511;51.232;9.420;2024-02-23T04:03:09;5.30;99.90
20700;DHT22;10511;51.232;9.420;2024-02-23T04:05:36;5.30;99.90
20700;DHT22;10511;51.232;9.420;2024-02-23T04:08:05;5.30;99.90
20700;DHT22;10511;51.232;9.420;2024-02-23T04:10:32;5.30;99.90
20700;DHT22;10511;51.232;9.420;2024-02-23T04:12:59;5.30;99.90
20700;DHT22;10511;51.232;9.420;2024-02-23T04:15:26;5.40;99.90
20700;DHT22;10511;51.232;9.420;2024-02-23T04:17:53;5.40;99.90
20700;DHT22;10511;51.232;9.420;2024-02-23T04:20:20;5.40;99.90
20700;DHT22;10511;51.232;9.420;2024-02-23T04:22:47;5.50;99.90
20700;DHT22;10511;51.232;9.420;2024-02-23T04:25:16;5.40;99.90
20700;DHT22;10511;51.232;9.420;2024-02-23T04:27:42;5.40;99.90
20700;DHT22;10511;51.232;9.420;2024-02-23T04:30:10;5.40;99.90
20700;DHT22;10511;51.232;9.420;2024-02-23T04:32:38;5.30;99.90
20700;DHT22;10511;51.232;9.420;2024-02-23T04:35:05;5.30;99.90
20700;DHT22;10511;51.232;9.420;2024-02-23T04:37:32;5.30;99.90
20700;DHT22;10511;51.232;9.420;2024-02-23T04:39:59;5.30;99.90
20700;DHT22;10511;51.232;9.420;2024-02-23T04:42:28;5.30;99.90
20700;DHT22;10511;51.232;9.420;2024-02-23T04:44:54;5.40;99.90
20700;DHT22;10511;51.232;9.420;2024-02-23T04:47:21;5.40;99.90
20700;DHT22;10511;51.232;9.420;2024-02-23T04:49:48;5.40;99.90
20700;DHT22;10511;51.232;9.420;2024-02-23T04:52:15;5.40;99.90
20700;DHT22;10511;51.232;9.420;2024-02-23T04:54:42;5.40;99.90
20700;DHT22;10511;51.232;9.420;2024-02-23T04:57:09;5.40;99.90
20700;DHT22;10511;51.232;9.420;2024-02-23T04:59:38;5.40;99.90
20700;DHT22;10511;51.232;9.420;2024-02-23T05:02:05;5.40;99.90
20700;DHT22;10511;51.232;9.420;2024-02-23T05:04:32;5.40;99.90
20700;DHT22;10511;51.232;9.420;2024-02-23T05:06:59;5.30;99.90
20700;DHT22;10511;51.232;9.420;2024-02-23T05:09:27;5.30;99.90
20700;DHT22;10511;51.232;9.420;2024-02-23T05:11:54;5.30;99.90
20700;DHT22;10511;51.232;9.420;2024-02-23T05:14:21;5.30;99.90
20700;DHT22;10511;51.232;9.420;2024-02-23T05:16:50;5.30;99.90
20700;DHT22;10511;51.232;9.420;2024-02-23T05:19:17;5.30;99.90
20700;DHT22;10511;51.232;9.420;2024-02-23T05:21:44;5.30;99.90
20700;DHT22;10511;51.232;9.420;2024-02-23T05:24:11;5.30;99.90
20700;DHT22;10511;51.232;9.420;2024-02-23T05:26:38;5.30;99.90
20700;DHT22;10511;51.232;9.420;2024-02-23T05:29:05;5.30;99.90
20700;DHT22;10511;51.232;9.420;2024-02-23T05:31:44;5.30;99.90
20700;DHT22;10511;51.232;9.420;2024-02-23T05:34:13;5.20;99.90
20700;DHT22;10511;51.232;9.420;2024-02-23T05:36:40;5.20;99.90
20700;DHT22;10511;51.232;9.420;2024-02-23T05:39:07;5.20;99.90
20700;DHT22;10511;51.232;9.420;2024-02-23T05:41:35;5.10;99.90
20700;DHT22;10511;51.232;9.420;2024-02-23T05:44:02;5.10;99.90
20700;DHT22;10511;51.232;9.420;2024-02-23T05:46:31;5.10;99.90
20700;DHT22;10511;51.232;9.420;2024-02-23T05:48:58;5.00;99.90
20700;DHT22;10511;51.232;9.420;2024-02-23T05:51:28;5.00;99.90
20700;DHT22;10511;51.232;9.420;2024-02-23T05:53:56;5.00;99.90
20700;DHT22;10511;51.232;9.420;2024-02-23T05:56:24;4.90;99.90
20700;DHT22;10511;51.232;9.420;2024-02-23T05:58:52;4.90;99.90
20700;DHT22;10511;51.232;9.420;2024-02-23T06:01:20;4.90;99.90
20700;DHT22;10511;51.232;9.420;2024-02-23T06:03:46;4.90;99.90
20700;DHT22;10511;51.232;9.420;2024-02-23T06:06:13;4.80;99.90
20700;DHT22;10511;51.232;9.420;2024-02-23T06:08:42;4.80;99.90
20700;DHT22;10511;51.232;9.420;2024-02-23T06:11:09;4.80;99.90
20700;DHT22;10511;51.232;9.420;2024-02-23T06:13:36;4.80;99.90
20700;DHT22;10511;51.232;9.420;2024-02-23T06:16:03;4.80;99.90
20700;DHT22;10511;51.232;9.420;2024-02-23T06:18:30;4.80;99.90
20700;DHT22;10511;51.232;9.420;2024-02-23T06:20:57;4.80;99.90
20700;DHT22;10511;51.232;9.420;2024-02-23T06:23:24;4.80;99.90
20700;DHT22;10511;51.232;9.420;2024-02-23T06:25:52;4.90;99.90
20700;DHT22;10511;51.232;9.420;2024-02-23T06:28:19;4.90;99.90
20700;DHT22;10511;51.232;9.420;2024-02-23T06:30:45;4.90;99.90
20700;DHT22;10511;51.232;9.420;2024-02-23T06:33:12;4.90;99.90
20700;DHT22;10511;51.232;9.420;2024-02-23T06:35:39;5.00;99.90
20700;DHT22;10511;51.232;9.420;2024-02-23T06:38:06;5.00;99.90
20700;DHT22;10511;51.232;9.420;2024-02-23T06:40:33;5.00;99.90
20700;DHT22;10511;51.232;9.420;2024-02-23T06:43:01;5.00;99.90
20700;DHT22;10511;51.232;9.420;2024-02-23T06:45:28;4.90;99.90
20700;DHT22;10511;51.232;9.420;2024-02-23T06:47:54;4.90;99.90
20700;DHT22;10511;51.232;9.420;2024-02-23T06:50:21;4.90;99.90
20700;DHT22;10511;51.232;9.420;2024-02-23T06:52:48;4.80;99.90
20700;DHT22;10511;51.232;9.420;2024-02-23T06:55:15;4.80;99.90
20700;DHT22;10511;51.232;9.420;2024-02-23T06:57:43;4.80;99.90
20700;DHT22;10511;51.232;9.420;2024-02-23T07:00:12;4.80;99.90
20700;DHT22;10511;51.232;9.420;2024-02-23T07:02:39;4.70;99.90
20700;DHT22;10511;51.232;9.420;2024-02-23T07:05:06;4.70;99.90
20700;DHT22;10511;51.232;9.420;2024-02-23T07:07:34;4.70;99.90
20700;DHT22;10511;51.232;9.420;2024-02-23T07:10:01;4.70;99.90
20700;DHT22;10511;51.232;9.420;2024-02-23T07:12:28;4.70;99.90
20700;DHT22;10511;51.232;9.420;2024-02-23T07:14:55;4.70;99.90
20700;DHT22;10511;51.232;9.420;2024-02-23T07:17:24;4.70;99.90
20700;DHT22;10511;51.232;9.420;2024-02-23T07:19:50;4.70;99.90
20700;DHT22;10511;51.232;9.420;2024-02-23T07:22:18;4.70;99.90
20700;DHT22;10511;51.232;9.420;2024-02-23T07:24:46;4.80;99.90
20700;DHT22;10511;51.232;9.420;2024-02-23T07:27:12;4.80;99.90
20700;DHT22;10511;51.232;9.420;2024-02-23T07:29:39;4.80;99.90
20700;DHT22;10511;51.232;9.420;2024-02-23T07:32:06;4.90;99.90
20700;DHT22;10511;51.232;9.420;2024-02-23T07:34:35;4.90;99.90
20700;DHT22;10511;51.232;9.420;2024-02-23T07:37:01;4.90;99.90
20700;DHT22;10511;51.232;9.420;2024-02-23T07:39:29;5.00;99.90
20700;DHT22;10511;51.232;9.420;2024-02-23T07:41:56;4.90;99.90
20700;DHT22;10511;51.232;9.420;2024-02-23T07:44:23;4.90;99.90
20700;DHT22;10511;51.232;9.420;2024-02-23T07:46:50;5.00;99.90
20700;DHT22;10511;51.232;9.420;2024-02-23T07:49:18;5.00;99.90
20700;DHT22;10511;51.232;9.420;2024-02-23T07:51:47;5.00;99.90
20700;DHT22;10511;51.232;9.420;2024-02-23T07:54:14;5.10;99.90
20700;DHT22;10511;51.232;9.420;2024-02-23T07:56:40;5.10;99.90
20700;DHT22;10511;51.232;9.420;2024-02-23T07:59:07;5.10;99.90
20700;DHT22;10511;51.232;9.420;2024-02-23T08:01:34;5.20;99.90
20700;DHT22;10511;51.232;9.420;2024-02-23T08:04:01;5.30;99.90
20700;DHT22;10511;51.232;9.420;2024-02-23T08:06:28;5.30;99.90
20700;DHT22;10511;51.232;9.420;2024-02-23T08:08:58;5.40;99.90
20700;DHT22;10511;51.232;9.420;2024-02-23T08:11:24;5.40;99.90
20700;DHT22;10511;51.232;9.420;2024-02-23T08:13:51;5.40;99.90
20700;DHT22;10511;51.232;9.420;2024-02-23T08:16:18;5.40;99.90
20700;DHT22;10511;51.232;9.420;2024-02-23T08:18:45;5.40;99.90
20700;DHT22;10511;51.232;9.420;2024-02-23T08:21:12;5.40;99.90
20700;DHT22;10511;51.232;9.420;2024-02-23T08:23:38;5.40;99.90
20700;DHT22;10511;51.232;9.420;2024-02-23T08:26:07;5.30;99.90
20700;DHT22;10511;51.232;9.420;2024-02-23T08:28:35;5.40;99.90
20700;DHT22;10511;51.232;9.420;2024-02-23T08:31:02;5.40;99.90
20700;DHT22;10511;51.232;9.420;2024-02-23T08:33:30;5.40;99.90
20700;DHT22;10511;51.232;9.420;2024-02-23T08:35:57;5.50;99.90
20700;DHT22;10511;51.232;9.420;2024-02-23T08:38:24;5.50;99.90
20700;DHT22;10511;51.232;9.420;2024-02-23T08:40:51;5.50;99.90
20700;DHT22;10511;51.232;9.420;2024-02-23T08:43:19;5.50;99.90
20700;DHT22;10511;51.232;9.420;2024-02-23T08:45:46;5.50;99.90
20700;DHT22;10511;51.232;9.420;2024-02-23T08:48:14;5.50;99.90
20700;DHT22;10511;51.232;9.420;2024-02-23T08:50:41;5.50;99.90
20700;DHT22;10511;51.232;9.420;2024-02-23T08:53:08;5.50;99.90
20700;DHT22;10511;51.232;9.420;2024-02-23T08:55:35;5.50;99.90
20700;DHT22;10511;51.232;9.420;2024-02-23T08:58:02;5.50;99.90
20700;DHT22;10511;51.232;9.420;2024-02-23T09:00:30;5.60;99.90
20700;DHT22;10511;51.232;9.420;2024-02-23T09:02:57;5.60;99.90
20700;DHT22;10511;51.232;9.420;2024-02-23T09:05:23;5.50;99.90
20700;DHT22;10511;51.232;9.420;2024-02-23T09:07:50;5.50;99.90
20700;DHT22;10511;51.232;9.420;2024-02-23T09:10:17;5.50;99.90
20700;DHT22;10511;51.232;9.420;2024-02-23T09:12:44;5.50;99.90
20700;DHT22;10511;51.232;9.420;2024-02-23T09:15:11;5.50;99.90
20700;DHT22;10511;51.232;9.420;2024-02-23T09:17:41;5.40;99.90
20700;DHT22;10511;51.232;9.420;2024-02-23T09:20:09;5.50;99.90
20700;DHT22;10511;51.232;9.420;2024-02-23T09:22:36;5.50;99.90
20700;DHT22;10511;51.232;9.420;2024-02-23T09:25:04;5.50;99.90
20700;DHT22;10511;51.232;9.420;2024-02-23T09:27:31;5.50;99.90
20700;DHT22;10511;51.232;9.420;2024-02-23T09:29:58;5.50;99.90
20700;DHT22;10511;51.232;9.420;2024-02-23T09:32:25;5.50;99.90
20700;DHT22;10511;51.232;9.420;2024-02-23T09:34:53;5.50;99.90
20700;DHT22;10511;51.232;9.420;2024-02-23T09:37:20;5.60;99.90
20700;DHT22;10511;51.232;9.420;2024-02-23T09:39:47;5.60;99.90
20700;DHT22;10511;51.232;9.420;2024-02-23T09:42:14;5.70;99.90
20700;DHT22;10511;51.232;9.420;2024-02-23T09:44:43;5.70;99.90
20700;DHT22;10511;51.232;9.420;2024-02-23T09:47:12;5.70;99.90
20700;DHT22;10511;51.232;9.420;2024-02-23T09:49:40;5.70;99.90
20700;DHT22;10511;51.232;9.420;2024-02-23T09:52:09;5.70;99.90
20700;DHT22;10511;51.232;9.420;2024-02-23T09:54:37;5.80;99.90
20700;DHT22;10511;51.232;9.420;2024-02-23T09:57:07;5.80;99.90
20700;DHT22;10511;51.232;9.420;2024-02-23T09:59:35;5.80;99.90
20700;DHT22;10511;51.232;9.420;2024-02-23T10:02:02;5.80;99.90
20700;DHT22;10511;51.232;9.420;2024-02-23T10:04:32;5.80;99.90
20700;DHT22;10511;51.232;9.420;2024-02-23T10:06:59;5.90;99.90
20700;DHT22;10511;51.232;9.420;2024-02-23T10:09:27;5.90;99.90
20700;DHT22;10511;51.232;9.420;2024-02-23T10:11:54;5.90;99.90
20700;DHT22;10511;51.232;9.420;2024-02-23T10:14:21;5.90;99.90
20700;DHT22;10511;51.232;9.420;2024-02-23T10:16:48;5.90;99.90
20700;DHT22;10511;51.232;9.420;2024-02-23T10:19:19;5.90;99.90
20700;DHT22;10511;51.232;9.420;2024-02-23T10:21:46;5.90;99.90
20700;DHT22;10511;51.232;9.420;2024-02-23T10:24:12;6.00;99.90
20700;DHT22;10511;51.232;9.420;2024-02-23T10:26:41;6.00;99.90
20700;DHT22;10511;51.232;9.420;2024-02-23T10:29:08;6.00;99.90
20700;DHT22;10511;51.232;9.420;2024-02-23T10:31:35;6.00;99.90
20700;DHT22;10511;51.232;9.420;2024-02-23T10:34:07;6.10;99.90
20700;DHT22;10511;51.232;9.420;2024-02-23T10:36:40;6.10;99.90
20700;DHT22;10511;51.232;9.420;2024-02-23T10:39:08;6.20;99.90
20700;DHT22;10511;51.232;9.420;2024-02-23T10:41:36;6.30;99.90
20700;DHT22;10511;51.232;9.420;2024-02-23T10:44:05;6.20;99.90
20700;DHT22;10511;51.232;9.420;2024-02-23T10:46:33;6.30;99.90
20700;DHT22;10511;51.232;9.420;2024-02-23T10:49:01;6.40;99.90
20700;DHT22;10511;51.232;9.420;2024-02-23T10:51:28;6.40;99.90
20700;DHT22;10511;51.232;9.420;2024-02-23T10:53:55;6.50;99.90
20700;DHT22;10511;51.232;9.420;2024-02-23T10:56:23;6.50;99.90
20700;DHT22;10511;51.232;9.420;2024-02-23T10:58:51;6.60;99.90
20700;DHT22;10511;51.232;9.420;2024-02-23T11:01:20;6.70;99.90
20700;DHT22;10511;51.232;9.420;2024-02-23T11:03:48;6.70;99.90
20700;DHT22;10511;51.232;9.420;2024-02-23T11:06:16;6.70;99.90
20700;DHT22;10511;51.232;9.420;2024-02-23T11:08:46;6.70;99.90
20700;DHT22;10511;51.232;9.420;2024-02-23T11:11:16;6.70;99.90
20700;DHT22;10511;51.232;9.420;2024-02-23T11:13:45;6.60;99.90
20700;DHT22;10511;51.232;9.420;2024-02-23T11:16:22;6.70;99.90
20700;DHT22;10511;51.232;9.420;2024-02-23T11:18:49;6.70;99.90
20700;DHT22;10511;51.232;9.420;2024-02-23T11:21:33;6.70;99.90
20700;DHT22;10511;51.232;9.420;2024-02-23T11:24:02;6.90;99.90
20700;DHT22;10511;51.232;9.420;2024-02-23T11:26:29;6.90;99.90
20700;DHT22;10511;51.232;9.420;2024-02-23T11:28:57;6.80;99.90
20700;DHT22;10511;51.232;9.420;2024-02-23T11:31:30;6.80;99.90
20700;DHT22;10511;51.232;9.420;2024-02-23T11:33:57;6.80;99.90
20700;DHT22;10511;51.232;9.420;2024-02-23T11:36:28;6.80;99.90
20700;DHT22;10511;51.232;9.420;2024-02-23T11:38:57;6.80;99.90
20700;DHT22;10511;51.232;9.420;2024-02-23T11:41:25;6.80;99.90
20700;DHT22;10511;51.232;9.420;2024-02-23T11:43:52;6.90;99.90
20700;DHT22;10511;51.232;9.420;2024-02-23T11:46:21;6.80;99.90
20700;DHT22;10511;51.232;9.420;2024-02-23T11:48:50;6.80;99.90
20700;DHT22;10511;51.232;9.420;2024-02-23T11:51:19;6.80;99.90
20700;DHT22;10511;51.232;9.420;2024-02-23T11:53:47;6.90;99.90
20700;DHT22;10511;51.232;9.420;2024-02-23T11:56:14;6.90;99.90
20700;DHT22;10511;51.232;9.420;2024-02-23T11:58:41;7.00;99.90
20700;DHT22;10511;51.232;9.420;2024-02-23T12:01:08;7.00;99.90
20700;DHT22;10511;51.232;9.420;2024-02-23T12:03:35;7.10;99.90
20700;DHT22;10511;51.232;9.420;2024-02-23T12:06:07;7.10;99.90
20700;DHT22;10511;51.232;9.420;2024-02-23T12:08:35;7.10;99.90
20700;DHT22;10511;51.232;9.420;2024-02-23T12:11:04;7.10;99.90
20700;DHT22;10511;51.232;9.420;2024-02-23T12:13:32;7.00;99.90
20700;DHT22;10511;51.232;9.420;2024-02-23T12:16:00;7.00;99.90
20700;DHT22;10511;51.232;9.420;2024-02-23T12:18:27;7.00;99.90
20700;DHT22;10511;51.232;9.420;2024-02-23T12:20:59;7.00;99.90
20700;DHT22;10511;51.232;9.420;2024-02-23T12:23:39;7.00;99.90
20700;DHT22;10511;51.232;9.420;2024-02-23T12:26:06;7.10;99.90
20700;DHT22;10511;51.232;9.420;2024-02-23T12:28:33;7.20;99.90
20700;DHT22;10511;51.232;9.420;2024-02-23T12:31:00;7.20;99.90
20700;DHT22;10511;51.232;9.420;2024-02-23T12:33:28;7.20;99.90
20700;DHT22;10511;51.232;9.420;2024-02-23T12:35:56;7.40;99.90
20700;DHT22;10511;51.232;9.420;2024-02-23T12:38:23;7.60;99.90
20700;DHT22;10511;51.232;9.420;2024-02-23T12:40:51;7.70;99.90
20700;DHT22;10511;51.232;9.420;2024-02-23T12:43:18;7.70;99.90
20700;DHT22;10511;51.232;9.420;2024-02-23T12:45:47;7.70;99.90
20700;DHT22;10511;51.232;9.420;2024-02-23T12:48:15;7.80;99.90
20700;DHT22;10511;51.232;9.420;2024-02-23T12:50:42;7.80;99.90
20700;DHT22;10511;51.232;9.420;2024-02-23T12:53:10;7.80;99.90
20700;DHT22;10511;51.232;9.420;2024-02-23T12:55:38;7.80;99.90
20700;DHT22;10511;51.232;9.420;2024-02-23T12:58:06;7.70;99.90
20700;DHT22;10511;51.232;9.420;2024-02-23T13:00:33;7.50;99.90
20700;DHT22;10511;51.232;9.420;2024-02-23T13:03:00;7.50;99.90
20700;DHT22;10511;51.232;9.420;2024-02-23T13:05:26;7.60;99.90
20700;DHT22;10511;51.232;9.420;2024-02-23T13:07:53;7.70;99.90
20700;DHT22;10511;51.232;9.420;2024-02-23T13:10:20;7.70;99.90
20700;DHT22;10511;51.232;9.420;2024-02-23T13:12:47;7.70;99.90
20700;DHT22;10511;51.232;9.420;2024-02-23T13:15:16;7.70;99.90
20700;DHT22;10511;51.232;9.420;2024-02-23T13:17:43;7.70;99.90
20700;DHT22;10511;51.232;9.420;2024-02-23T13:20:11;7.70;99.90
20700;DHT22;10511;51.232;9.420;2024-02-23T13:22:39;7.80;99.90
20700;DHT22;10511;51.232;9.420;2024-02-23T13:25:06;7.90;99.90
20700;DHT22;10511;51.232;9.420;2024-02-23T13:27:33;8.00;99.90
20700;DHT22;10511;51.232;9.420;2024-02-23T13:30:00;8.20;99.90
20700;DHT22;10511;51.232;9.420;2024-02-23T13:32:28;8.10;99.90
20700;DHT22;10511;51.232;9.420;2024-02-23T13:34:55;7.90;99.90
20700;DHT22;10511;51.232;9.420;2024-02-23T13:37:22;7.60;99.90
20700;DHT22;10511;51.232;9.420;2024-02-23T13:39:49;7.50;99.90
20700;DHT22;10511;51.232;9.420;2024-02-23T13:42:16;7.40;99.90
20700;DHT22;10511;51.232;9.420;2024-02-23T13:44:43;7.40;99.90
20700;DHT22;10511;51.232;9.420;2024-02-23T13:47:11;7.30;99.90
20700;DHT22;10511;51.232;9.420;2024-02-23T13:49:40;7.30;99.90
20700;DHT22;10511;51.232;9.420;2024-02-23T13:52:07;7.30;99.90
20700;DHT22;10511;51.232;9.420;2024-02-23T13:54:33;7.40;99.90
20700;DHT22;10511;51.232;9.420;2024-02-23T13:57:00;7.40;99.90
20700;DHT22;10511;51.232;9.420;2024-02-23T13:59:27;7.40;99.90
20700;DHT22;10511;51.232;9.420;2024-02-23T14:01:54;7.50;99.90
20700;DHT22;10511;51.232;9.420;2024-02-23T14:04:21;7.40;99.90
20700;DHT22;10511;51.232;9.420;2024-02-23T14:06:49;7.30;99.90
20700;DHT22;10511;51.232;9.420;2024-02-23T14:09:16;7.30;99.90
20700;DHT22;10511;51.232;9.420;2024-02-23T14:11:43;7.30;99.90
20700;DHT22;10511;51.232;9.420;2024-02-23T14:14:11;7.30;99.90
20700;DHT22;10511;51.232;9.420;2024-02-23T14:16:39;7.30;99.90
20700;DHT22;10511;51.232;9.420;2024-02-23T14:19:06;7.30;99.90
20700;DHT22;10511;51.232;9.420;2024-02-23T14:21:33;7.30;99.90
20700;DHT22;10511;51.232;9.420;2024-02-23T14:24:02;7.40;99.90
20700;DHT22;10511;51.232;9.420;2024-02-23T14:26:29;7.40;99.90
20700;DHT22;10511;51.232;9.420;2024-02-23T14:28:56;7.40;99.90
20700;DHT22;10511;51.232;9.420;2024-02-23T14:31:26;7.40;99.90
20700;DHT22;10511;51.232;9.420;2024-02-23T14:33:58;7.40;99.90
20700;DHT22;10511;51.232;9.420;2024-02-23T14:36:24;7.40;99.90
20700;DHT22;10511;51.232;9.420;2024-02-23T14:38:52;7.40;99.90
20700;DHT22;10511;51.232;9.420;2024-02-23T14:41:20;7.40;99.90
20700;DHT22;10511;51.232;9.420;2024-02-23T14:43:48;7.40;99.90
20700;DHT22;10511;51.232;9.420;2024-02-23T14:46:15;7.50;99.90
20700;DHT22;10511;51.232;9.420;2024-02-23T14:48:42;7.50;99.90
20700;DHT22;10511;51.232;9.420;2024-02-23T14:51:08;7.40;99.90
20700;DHT22;10511;51.232;9.420;2024-02-23T14:53:36;7.40;99.90
20700;DHT22;10511;51.232;9.420;2024-02-23T14:56:03;7.40;99.90
20700;DHT22;10511;51.232;9.420;2024-02-23T14:58:31;7.50;99.90
20700;DHT22;10511;51.232;9.420;2024-02-23T15:00:58;7.50;99.90
20700;DHT22;10511;51.232;9.420;2024-02-23T15:03:25;7.40;99.90
20700;DHT22;10511;51.232;9.420;2024-02-23T15:05:52;7.40;99.90
20700;DHT22;10511;51.232;9.420;2024-02-23T15:08:19;7.40;99.90
20700;DHT22;10511;51.232;9.420;2024-02-23T15:10:46;7.40;99.90
20700;DHT22;10511;51.232;9.420;2024-02-23T15:13:13;7.40;99.90
20700;DHT22;10511;51.232;9.420;2024-02-23T15:15:41;7.10;99.90
20700;DHT22;10511;51.232;9.420;2024-02-23T15:18:08;7.00;99.90
20700;DHT22;10511;51.232;9.420;2024-02-23T15:20:35;7.00;99.90
20700;DHT22;10511;51.232;9.420;2024-02-23T15:23:02;7.00;99.90
20700;DHT22;10511;51.232;9.420;2024-02-23T15:25:29;7.10;99.90
20700;DHT22;10511;51.232;9.420;2024-02-23T15:27:56;7.10;99.90
20700;DHT22;10511;51.232;9.420;2024-02-23T15:30:24;7.10;99.90
20700;DHT22;10511;51.232;9.420;2024-02-23T15:32:52;7.10;99.90
20700;DHT22;10511;51.232;9.420;2024-02-23T15:35:19;7.10;99.90
20700;DHT22;10511;51.232;9.420;2024-02-23T15:37:46;7.10;99.90
20700;DHT22;10511;51.232;9.420;2024-02-23T15:40:13;7.10;99.90
20700;DHT22;10511;51.232;9.420;2024-02-23T15:42:40;7.10;99.90
20700;DHT22;10511;51.232;9.420;2024-02-23T15:45:08;7.10;99.90
20700;DHT22;10511;51.232;9.420;2024-02-23T15:47:34;7.00;99.90